Anderson, Missouri
Current Conditions -  °F | °C
As of 10:15 PM on Wednesday 17 Dec 2014 (Local Time) from KGMJ Reporting Station
Haze Haze  
Wind Chill:   Ceiling: 1100
Heat Index:   Visibility: 4mi
Dew Point:   Wind: 0mph
Humidity: 100%   Direction: NA
Pressure: 30.21"   Gusts: NA
Location:  36.65°N, 94.44°W
Report Text: KGMJ 180415Z AUTO 00000KT 4SM BR SCT003 BKN011 OVC023 02/02 A3021 RMK AO2
Loading
Personal Weather Stations






























Interactive Weather Map New forecast layout! Learn more

10-Day Weather Forecast

Advertisements
Track Severe Weather on mobile